createdAt,value
2023-04-27T00:02:10.148Z,98080.24
2023-04-27T00:04:37.999Z,98080.49
2023-04-27T00:07:05.329Z,98084.45
2023-04-27T00:09:32.376Z,98085.98
2023-04-27T00:11:59.387Z,98083.43
2023-04-27T00:14:28.776Z,98085.96
2023-04-27T00:16:57.081Z,98091.45
2023-04-27T00:19:24.137Z,98099.94
2023-04-27T00:21:51.579Z,98108.23
2023-04-27T00:24:18.592Z,98107.56
2023-04-27T00:26:45.598Z,98119.11
2023-04-27T00:29:12.818Z,98126.30
2023-04-27T00:31:40.088Z,98126.05
2023-04-27T00:34:07.159Z,98130.84
2023-04-27T00:36:35.608Z,98129.86
2023-04-27T00:39:04.097Z,98134.57
2023-04-27T00:41:32.939Z,98133.95
2023-04-27T00:44:00.251Z,98135.52
2023-04-27T00:46:28.166Z,98139.10
2023-04-27T00:48:56.432Z,98141.77
2023-04-27T00:51:28.229Z,98146.13
2023-04-27T00:53:56.645Z,98145.70
2023-04-27T00:56:23.830Z,98140.14
2023-04-27T00:58:50.830Z,98140.66
2023-04-27T01:01:20.944Z,98137.45
2023-04-27T01:03:48.555Z,98136.94
2023-04-27T01:06:15.698Z,98133.29
2023-04-27T01:08:43.996Z,98135.20
2023-04-27T01:11:11.127Z,98138.28
2023-04-27T01:13:39.506Z,98151.50
2023-04-27T01:16:07.057Z,98152.52
2023-04-27T01:18:35.298Z,98147.04
2023-04-27T01:21:02.269Z,98137.50
2023-04-27T01:23:29.376Z,98137.84
2023-04-27T01:25:56.929Z,98141.30
2023-04-27T01:28:23.953Z,98148.61
2023-04-27T01:30:51.548Z,98146.14
2023-04-27T01:33:18.606Z,98148.45
2023-04-27T01:35:48.587Z,98142.83
2023-04-27T01:38:16.330Z,98145.36
2023-04-27T01:40:44.291Z,98146.11
2023-04-27T01:43:11.466Z,98160.39
2023-04-27T01:45:38.523Z,98159.63
2023-04-27T01:48:05.689Z,98155.14
2023-04-27T01:50:32.698Z,98157.54
2023-04-27T01:52:59.837Z,98155.23
2023-04-27T01:55:28.963Z,98156.65
2023-04-27T01:57:56.062Z,98156.00
2023-04-27T02:00:23.116Z,98143.84
2023-04-27T02:02:53.940Z,98152.34
2023-04-27T02:05:23.782Z,98157.39
2023-04-27T02:07:51.282Z,98161.73
2023-04-27T02:10:18.264Z,98167.91
2023-04-27T02:12:45.463Z,98166.38
2023-04-27T02:15:12.487Z,98154.58
2023-04-27T02:17:39.806Z,98156.79
2023-04-27T02:20:07.836Z,98154.26
2023-04-27T02:22:35.355Z,98152.15
2023-04-27T02:25:02.384Z,98158.23
2023-04-27T02:27:29.405Z,98161.66
2023-04-27T02:29:58.221Z,98165.42
2023-04-27T02:32:25.800Z,98167.39
2023-04-27T02:34:53.050Z,98170.86
2023-04-27T02:37:20.041Z,98169.73
2023-04-27T02:39:47.518Z,98170.57
2023-04-27T02:42:14.890Z,98170.93
2023-04-27T02:44:43.097Z,98174.13
2023-04-27T02:47:11.214Z,98174.92
2023-04-27T02:49:38.619Z,98175.72
2023-04-27T02:52:05.906Z,98182.05
2023-04-27T02:54:35.055Z,98188.50
2023-04-27T02:57:02.436Z,98192.38
2023-04-27T02:59:29.445Z,98191.00
2023-04-27T03:01:56.635Z,98192.70
2023-04-27T03:04:23.749Z,98194.02
2023-04-27T03:06:51.113Z,98201.20
2023-04-27T03:09:18.121Z,98202.13
2023-04-27T03:11:45.157Z,98210.08
2023-04-27T03:14:13.607Z,98210.67
2023-04-27T03:16:40.942Z,98216.68
2023-04-27T03:19:08.725Z,98218.71
2023-04-27T03:21:36.318Z,98218.84
2023-04-27T03:24:03.975Z,98218.30
2023-04-27T03:26:31.129Z,98225.71
2023-04-27T03:28:58.140Z,98231.15
2023-04-27T03:31:29.089Z,98226.25
2023-04-27T03:33:56.103Z,98229.27
2023-04-27T03:36:23.155Z,98230.20
2023-04-27T03:38:50.175Z,98226.98
2023-04-27T03:41:17.215Z,98232.52
2023-04-27T03:43:44.248Z,98236.48
2023-04-27T03:46:11.419Z,98242.05
2023-04-27T03:48:38.625Z,98243.91
2023-04-27T03:51:06.934Z,98242.53
2023-04-27T03:53:34.522Z,98244.34
2023-04-27T03:56:02.282Z,98244.04
2023-04-27T03:58:29.353Z,98241.30
2023-04-27T04:01:10.487Z,98239.09
2023-04-27T04:03:37.950Z,98240.67
2023-04-27T04:06:06.750Z,98243.22
2023-04-27T04:10:32.105Z,98246.44
2023-04-27T04:12:59.230Z,98248.73
2023-04-27T04:15:26.471Z,98252.27
2023-04-27T04:17:54.711Z,98250.41
2023-04-27T04:20:22.022Z,98249.85
2023-04-27T04:22:48.890Z,98248.38
2023-04-27T04:25:15.795Z,98257.48
2023-04-27T04:27:42.645Z,98252.59
2023-04-27T04:30:11.008Z,98248.63
2023-04-27T04:32:38.746Z,98251.73
2023-04-27T04:35:06.632Z,98247.90
2023-04-27T04:37:35.061Z,98253.59
2023-04-27T04:40:08.596Z,98251.27
2023-04-27T04:42:38.992Z,98245.73
2023-04-27T04:45:07.529Z,98241.86
2023-04-27T04:47:36.220Z,98247.03
2023-04-27T04:50:03.698Z,98236.14
2023-04-27T04:52:30.930Z,98241.59
2023-04-27T04:54:57.846Z,98245.48
2023-04-27T04:57:24.885Z,98250.64
2023-04-27T04:59:51.698Z,98255.92
2023-04-27T05:02:18.761Z,98253.83
2023-04-27T05:04:45.784Z,98244.67
2023-04-27T05:07:15.259Z,98238.41
2023-04-27T05:09:42.926Z,98243.94
2023-04-27T05:12:09.754Z,98256.37
2023-04-27T05:14:37.178Z,98266.95
2023-04-27T05:17:03.999Z,98266.52
2023-04-27T05:19:30.798Z,98265.58
2023-04-27T05:21:58.430Z,98261.14
2023-04-27T05:24:25.877Z,98266.88
2023-04-27T05:26:53.090Z,98272.11
2023-04-27T05:29:20.661Z,98276.69
2023-04-27T05:31:47.495Z,98276.91
2023-04-27T05:34:14.391Z,98274.70
2023-04-27T05:36:41.276Z,98283.73
2023-04-27T05:39:08.146Z,98285.94
2023-04-27T05:41:35.804Z,98282.66
2023-04-27T05:44:02.740Z,98282.31
2023-04-27T05:46:30.117Z,98283.63
2023-04-27T05:48:57.124Z,98283.09
2023-04-27T05:51:24.283Z,98287.33
2023-04-27T05:53:54.694Z,98287.91
2023-04-27T05:56:21.866Z,98286.59
2023-04-27T05:58:48.805Z,98285.64
2023-04-27T06:01:15.825Z,98281.61
2023-04-27T06:03:43.088Z,98277.70
2023-04-27T06:06:10.129Z,98283.05
2023-04-27T06:08:38.929Z,98283.55
2023-04-27T06:11:06.456Z,98288.65
2023-04-27T06:13:34.220Z,98295.01
2023-04-27T06:16:01.289Z,98295.05
2023-04-27T06:18:28.555Z,98294.65
2023-04-27T06:21:00.823Z,98295.40
2023-04-27T06:23:28.043Z,98293.63
2023-04-27T06:25:55.039Z,98298.94
2023-04-27T06:28:22.001Z,98301.50
2023-04-27T06:30:48.825Z,98307.73
2023-04-27T06:33:15.877Z,98316.35
2023-04-27T06:35:44.537Z,98318.17
2023-04-27T06:38:12.928Z,98324.02
2023-04-27T06:40:39.827Z,98322.75
2023-04-27T06:43:06.823Z,98321.15
2023-04-27T06:45:33.630Z,98328.27
2023-04-27T06:48:00.476Z,98328.20
2023-04-27T06:50:27.364Z,98320.81
2023-04-27T06:52:54.246Z,98323.76
2023-04-27T06:55:21.170Z,98324.20
2023-04-27T06:57:48.121Z,98323.17
2023-04-27T07:00:15.265Z,98327.73
2023-04-27T07:02:43.349Z,98334.69
2023-04-27T07:05:10.530Z,98332.83
2023-04-27T07:07:38.433Z,98340.16
2023-04-27T07:10:06.340Z,98336.06
2023-04-27T07:12:34.442Z,98338.89
2023-04-27T07:15:03.574Z,98336.72
2023-04-27T07:17:30.948Z,98340.55
2023-04-27T07:19:58.204Z,98340.67
2023-04-27T07:22:26.272Z,98340.91
2023-04-27T07:24:53.057Z,98336.28
2023-04-27T07:27:19.968Z,98339.13
2023-04-27T07:29:47.883Z,98338.26
2023-04-27T07:32:15.265Z,98342.08
2023-04-27T07:34:52.779Z,98342.55
2023-04-27T07:37:21.639Z,98346.86
2023-04-27T07:39:49.574Z,98347.59
2023-04-27T07:42:18.153Z,98354.50
2023-04-27T07:44:44.975Z,98358.33
2023-04-27T07:47:13.055Z,98358.09
2023-04-27T07:49:39.836Z,98355.92
2023-04-27T07:52:06.918Z,98352.95
2023-04-27T07:54:34.679Z,98364.23
2023-04-27T07:57:01.776Z,98356.29
2023-04-27T07:59:29.818Z,98356.66
2023-04-27T08:02:07.018Z,98361.52
2023-04-27T08:04:38.475Z,98366.98
2023-04-27T08:07:06.132Z,98368.14
2023-04-27T08:09:34.049Z,98366.23
2023-04-27T08:12:02.644Z,98371.13
2023-04-27T08:14:29.634Z,98364.88
2023-04-27T08:16:56.393Z,98372.42
2023-04-27T08:19:23.517Z,98376.50
2023-04-27T08:21:50.340Z,98382.14
2023-04-27T08:24:17.529Z,98381.79
2023-04-27T08:26:44.339Z,98388.60
2023-04-27T08:29:19.992Z,98388.67
2023-04-27T08:31:56.763Z,98389.45
2023-04-27T08:34:24.286Z,98383.92
2023-04-27T08:36:51.575Z,98388.67
2023-04-27T08:39:18.628Z,98386.91
2023-04-27T08:41:47.530Z,98390.51
2023-04-27T08:44:14.336Z,98393.65
2023-04-27T08:46:41.388Z,98387.63
2023-04-27T08:49:09.401Z,98395.11
2023-04-27T08:51:37.528Z,98393.30
2023-04-27T08:54:04.370Z,98399.30
2023-04-27T08:56:31.533Z,98396.05
2023-04-27T08:58:58.619Z,98395.02
2023-04-27T09:01:26.933Z,98397.51
2023-04-27T09:04:01.588Z,98391.44
2023-04-27T09:06:33.162Z,98392.63
2023-04-27T09:09:00.594Z,98394.48
2023-04-27T09:11:33.256Z,98397.77
2023-04-27T09:14:02.450Z,98399.85
2023-04-27T09:16:30.668Z,98407.48
2023-04-27T09:18:58.097Z,98409.16
2023-04-27T09:21:27.229Z,98399.33
2023-04-27T09:23:55.483Z,98406.73
2023-04-27T09:26:23.691Z,98404.61
2023-04-27T09:28:52.059Z,98411.29
2023-04-27T09:31:19.047Z,98407.84
2023-04-27T09:33:46.984Z,98413.91
2023-04-27T09:36:13.860Z,98413.02
2023-04-27T09:38:41.105Z,98413.76
2023-04-27T09:41:08.004Z,98410.17
2023-04-27T09:43:36.440Z,98407.55
2023-04-27T09:46:03.738Z,98408.79
2023-04-27T09:48:30.784Z,98405.39
2023-04-27T09:50:57.518Z,98398.80
2023-04-27T09:53:56.080Z,98403.14
2023-04-27T09:56:47.828Z,98410.75
2023-04-27T09:59:45.329Z,98406.05
2023-04-27T10:02:24.057Z,98402.75
2023-04-27T10:05:09.780Z,98405.68
2023-04-27T10:07:39.954Z,98411.23
2023-04-27T10:10:08.167Z,98405.44
2023-04-27T10:12:36.096Z,98390.55
2023-04-27T10:15:16.319Z,98405.20
2023-04-27T10:17:50.144Z,98404.56
2023-04-27T10:20:17.241Z,98408.52
2023-04-27T10:22:48.002Z,98410.40
2023-04-27T10:25:25.657Z,98404.59
2023-04-27T10:28:01.396Z,98407.05
2023-04-27T10:30:34.646Z,98420.57
2023-04-27T10:33:06.791Z,98409.36
2023-04-27T10:35:38.515Z,98417.21
2023-04-27T10:38:29.526Z,98429.14
2023-04-27T10:41:01.764Z,98430.27
2023-04-27T10:43:30.216Z,98433.80
2023-04-27T10:46:11.337Z,98440.71
2023-04-27T10:48:42.981Z,98438.16
2023-04-27T10:51:09.782Z,98436.02
2023-04-27T10:53:37.067Z,98446.79
2023-04-27T10:56:06.342Z,98443.24
2023-04-27T10:58:45.339Z,98442.79
2023-04-27T11:01:26.417Z,98444.84
2023-04-27T11:03:59.275Z,98447.30
2023-04-27T11:06:27.958Z,98446.21
2023-04-27T11:08:55.206Z,98442.96
2023-04-27T11:11:22.530Z,98445.05
2023-04-27T11:13:49.988Z,98444.04
2023-04-27T11:16:18.885Z,98449.81
2023-04-27T11:18:45.796Z,98443.48
2023-04-27T11:21:13.912Z,98446.48
2023-04-27T11:23:41.070Z,98446.20
2023-04-27T11:26:11.918Z,98446.92
2023-04-27T11:28:38.823Z,98453.05
2023-04-27T11:31:05.980Z,98452.81
2023-04-27T11:33:33.540Z,98456.27
2023-04-27T11:36:00.968Z,98456.37
2023-04-27T11:38:33.077Z,98450.21
2023-04-27T11:41:04.956Z,98460.70
2023-04-27T11:43:32.663Z,98461.33
2023-04-27T11:46:03.882Z,98454.55
2023-04-27T11:48:30.766Z,98453.11
2023-04-27T11:50:58.778Z,98454.82
2023-04-27T11:53:33.339Z,98458.33
2023-04-27T11:56:05.702Z,98465.11
2023-04-27T11:58:37.092Z,98459.84
2023-04-27T12:01:04.606Z,98463.14
2023-04-27T12:03:31.852Z,98460.85
2023-04-27T12:06:11.389Z,98452.61
2023-04-27T12:08:43.364Z,98462.48
2023-04-27T12:11:11.238Z,98464.95
2023-04-27T12:13:38.025Z,98458.86
2023-04-27T12:16:05.583Z,98453.73
2023-04-27T12:18:33.385Z,98461.11
2023-04-27T12:21:03.143Z,98460.71
2023-04-27T12:23:31.763Z,98460.02
2023-04-27T12:25:58.604Z,98463.04
2023-04-27T12:28:25.744Z,98474.20
2023-04-27T12:30:52.753Z,98472.92
2023-04-27T12:33:19.661Z,98476.71
2023-04-27T12:35:46.607Z,98481.58
2023-04-27T12:38:13.710Z,98481.01
2023-04-27T12:40:40.628Z,98481.92
2023-04-27T12:43:08.174Z,98485.23
2023-04-27T12:45:35.021Z,98482.48
2023-04-27T12:48:04.282Z,98484.81
2023-04-27T12:50:31.680Z,98481.58
2023-04-27T12:52:59.022Z,98485.20
2023-04-27T12:57:58.426Z,98478.94
2023-04-27T13:00:25.756Z,98474.08
2023-04-27T13:02:53.354Z,98485.33
2023-04-27T13:05:21.626Z,98485.89
2023-04-27T13:07:48.474Z,98479.72
2023-04-27T13:10:15.342Z,98478.43
2023-04-27T13:12:42.614Z,98492.01
2023-04-27T13:15:09.699Z,98494.93
2023-04-27T13:17:36.822Z,98493.19
2023-04-27T13:20:04.250Z,98498.41
2023-04-27T13:22:31.382Z,98503.10
2023-04-27T13:24:58.375Z,98505.30
2023-04-27T13:27:27.921Z,98510.14
2023-04-27T13:29:55.452Z,98505.46
2023-04-27T13:32:22.409Z,98507.75
2023-04-27T13:34:49.418Z,98506.39
2023-04-27T13:37:16.808Z,98506.42
2023-04-27T13:39:43.751Z,98512.09
2023-04-27T13:42:11.138Z,98507.13
2023-04-27T13:44:38.014Z,98509.70
2023-04-27T13:47:05.012Z,98513.05
2023-04-27T13:49:32.509Z,98508.38
2023-04-27T13:51:59.923Z,98515.39
2023-04-27T13:54:27.046Z,98514.91
2023-04-27T13:56:53.903Z,98516.70
2023-04-27T13:59:21.268Z,98513.44
2023-04-27T14:01:48.382Z,98510.07
2023-04-27T14:04:15.846Z,98511.73
2023-04-27T14:06:42.933Z,98517.66
2023-04-27T14:09:09.741Z,98522.67
2023-04-27T14:11:48.485Z,98514.35
2023-04-27T14:14:20.306Z,98514.48
2023-04-27T14:16:47.139Z,98516.95
2023-04-27T14:19:15.774Z,98512.54
2023-04-27T14:21:42.868Z,98516.90
2023-04-27T14:24:09.843Z,98518.36
2023-04-27T14:26:37.062Z,98520.80
2023-04-27T14:29:03.846Z,98532.77
2023-04-27T14:31:31.847Z,98544.56
2023-04-27T14:33:58.715Z,98548.96
2023-04-27T14:36:26.820Z,98541.92
2023-04-27T14:38:54.802Z,98546.16
2023-04-27T14:41:21.571Z,98533.58
2023-04-27T14:43:48.423Z,98544.10
2023-04-27T14:46:21.267Z,98543.41
2023-04-27T14:48:48.541Z,98547.34
2023-04-27T14:51:15.850Z,98550.17
2023-04-27T14:53:43.597Z,98543.24
2023-04-27T14:56:11.093Z,98547.37
2023-04-27T14:58:38.320Z,98540.10
2023-04-27T15:01:07.079Z,98555.25
2023-04-27T15:03:34.689Z,98551.98
2023-04-27T15:06:01.948Z,98554.61
2023-04-27T15:08:31.222Z,98544.77
2023-04-27T15:11:00.776Z,98550.40
2023-04-27T15:13:28.450Z,98552.89
2023-04-27T15:15:56.154Z,98546.11
2023-04-27T15:18:23.507Z,98555.49
2023-04-27T15:20:51.994Z,98553.38
2023-04-27T15:23:19.683Z,98563.20
2023-04-27T15:25:47.664Z,98558.32
2023-04-27T15:28:16.297Z,98554.23
2023-04-27T15:30:43.986Z,98560.58
2023-04-27T15:33:11.603Z,98553.23
2023-04-27T15:35:40.260Z,98558.60
2023-04-27T15:38:08.335Z,98554.98
2023-04-27T15:40:35.503Z,98548.94
2023-04-27T15:43:02.430Z,98551.57
2023-04-27T15:45:29.452Z,98548.93
2023-04-27T15:47:56.633Z,98560.92
2023-04-27T15:50:23.778Z,98563.23
2023-04-27T15:52:50.751Z,98569.25
2023-04-27T15:55:17.709Z,98561.85
2023-04-27T15:57:45.022Z,98567.63
2023-04-27T16:00:14.822Z,98565.69
2023-04-27T16:02:42.547Z,98572.88
2023-04-27T16:05:09.482Z,98576.63
2023-04-27T16:07:38.887Z,98582.08
2023-04-27T16:10:06.894Z,98589.61
2023-04-27T16:12:34.254Z,98598.44
2023-04-27T16:15:01.242Z,98597.98
2023-04-27T16:17:32.909Z,98594.30
2023-04-27T16:19:59.850Z,98587.14
2023-04-27T16:22:27.550Z,98589.05
2023-04-27T16:24:54.565Z,98590.44
2023-04-27T16:28:12.719Z,98592.27
2023-04-27T16:30:39.865Z,98601.39
2023-04-27T16:33:06.920Z,98588.36
2023-04-27T16:35:34.540Z,98592.80
2023-04-27T16:38:01.676Z,98598.87
2023-04-27T16:40:28.781Z,98600.41
2023-04-27T16:42:55.829Z,98597.48
2023-04-27T16:45:22.897Z,98596.42
2023-04-27T16:47:49.973Z,98594.73
2023-04-27T16:50:17.444Z,98593.85
2023-04-27T16:52:44.482Z,98593.36
2023-04-27T16:55:11.997Z,98585.68
2023-04-27T16:57:39.060Z,98590.14
2023-04-27T17:00:09.358Z,98589.63
2023-04-27T17:02:36.783Z,98588.38
2023-04-27T17:05:04.179Z,98596.20
2023-04-27T17:07:33.068Z,98598.38
2023-04-27T17:10:00.399Z,98600.90
2023-04-27T17:12:27.789Z,98612.40
2023-04-27T17:14:54.999Z,98606.91
2023-04-27T17:17:22.305Z,98615.02
2023-04-27T17:19:49.330Z,98613.65
2023-04-27T17:22:16.802Z,98624.15
2023-04-27T17:24:43.872Z,98618.52
2023-04-27T17:27:11.469Z,98626.86
2023-04-27T17:29:38.535Z,98626.46
2023-04-27T17:32:05.873Z,98627.95
2023-04-27T17:34:33.462Z,98638.18
2023-04-27T17:37:00.594Z,98637.29
2023-04-27T17:39:28.477Z,98642.92
2023-04-27T17:41:55.723Z,98645.46
2023-04-27T17:44:22.834Z,98649.25
2023-04-27T17:46:51.238Z,98650.87
2023-04-27T17:49:18.781Z,98655.88
2023-04-27T17:51:46.368Z,98653.62
2023-04-27T17:54:13.482Z,98652.55
2023-04-27T17:56:40.549Z,98660.89
2023-04-27T17:59:10.373Z,98665.73
2023-04-27T18:01:37.408Z,98665.86
2023-04-27T18:04:07.421Z,98666.66
2023-04-27T18:06:34.767Z,98671.17
2023-04-27T18:09:01.815Z,98671.08
2023-04-27T18:11:29.051Z,98671.96
2023-04-27T18:13:58.103Z,98678.52
2023-04-27T18:16:25.256Z,98673.83
2023-04-27T18:18:52.240Z,98675.96
2023-04-27T18:21:19.370Z,98683.52
2023-04-27T18:23:46.592Z,98688.55
2023-04-27T18:26:14.000Z,98686.95
2023-04-27T18:28:42.138Z,98689.06
2023-04-27T18:31:19.090Z,98688.86
2023-04-27T18:33:46.792Z,98694.46
2023-04-27T18:36:13.874Z,98701.84
2023-04-27T18:38:40.998Z,98702.95
2023-04-27T18:41:08.031Z,98693.75
2023-04-27T18:43:36.771Z,98695.90
2023-04-27T18:46:04.567Z,98694.80
2023-04-27T18:48:32.664Z,98696.39
2023-04-27T18:50:59.765Z,98698.39
2023-04-27T18:53:27.238Z,98697.77
2023-04-27T18:55:54.328Z,98691.52
2023-04-27T18:58:21.723Z,98701.66
2023-04-27T19:00:48.890Z,98698.86
2023-04-27T19:03:15.991Z,98700.24
2023-04-27T19:05:43.295Z,98708.86
2023-04-27T19:08:10.517Z,98706.34
2023-04-27T19:10:57.055Z,98711.66
2023-04-27T19:13:25.703Z,98715.27
2023-04-27T19:15:52.804Z,98712.79
2023-04-27T19:18:20.198Z,98713.33
2023-04-27T19:20:47.390Z,98711.02
2023-04-27T19:23:15.263Z,98714.11
2023-04-27T19:25:42.511Z,98714.48
2023-04-27T19:28:10.531Z,98711.44
2023-04-27T19:30:38.027Z,98714.95
2023-04-27T19:33:05.275Z,98715.36
2023-04-27T19:35:32.250Z,98721.59
2023-04-27T19:37:59.266Z,98722.11
2023-04-27T19:40:26.311Z,98722.36
2023-04-27T19:42:53.591Z,98723.08
2023-04-27T19:45:22.368Z,98721.97
2023-04-27T19:47:49.611Z,98723.62
2023-04-27T19:50:17.063Z,98726.77
2023-04-27T19:52:44.083Z,98734.04
2023-04-27T19:55:11.123Z,98734.58
2023-04-27T19:57:38.084Z,98732.99
2023-04-27T20:00:07.326Z,98736.67
2023-04-27T20:02:40.390Z,98742.39
2023-04-27T20:05:08.872Z,98746.81
2023-04-27T20:07:37.577Z,98749.58
2023-04-27T20:10:05.742Z,98751.84
2023-04-27T20:12:51.492Z,98751.48
2023-04-27T20:15:19.779Z,98749.07
2023-04-27T20:17:46.810Z,98746.05
2023-04-27T20:20:13.803Z,98743.19
2023-04-27T20:22:40.899Z,98743.91
2023-04-27T20:25:08.279Z,98747.62
2023-04-27T20:27:35.842Z,98748.56
2023-04-27T20:30:02.868Z,98748.54
2023-04-27T20:32:29.845Z,98750.35
2023-04-27T20:34:58.894Z,98745.71
2023-04-27T20:37:26.766Z,98753.33
2023-04-27T20:39:53.964Z,98759.07
2023-04-27T20:42:21.100Z,98760.94
2023-04-27T20:44:48.674Z,98759.98
2023-04-27T20:47:15.790Z,98755.77
2023-04-27T20:49:43.820Z,98757.10
2023-04-27T20:52:10.885Z,98756.27
2023-04-27T20:54:37.934Z,98755.59
2023-04-27T20:57:08.802Z,98752.85
2023-04-27T20:59:36.157Z,98759.20
2023-04-27T21:02:03.191Z,98761.14
2023-04-27T21:04:30.369Z,98761.07
2023-04-27T21:06:57.415Z,98759.50
2023-04-27T21:09:24.423Z,98763.55
2023-04-27T21:11:51.446Z,98761.60
2023-04-27T21:14:18.376Z,98767.83
2023-04-27T21:16:45.349Z,98763.91
2023-04-27T21:19:15.575Z,98761.46
2023-04-27T21:21:42.656Z,98759.33
2023-04-27T21:24:09.869Z,98757.21
2023-04-27T21:26:37.058Z,98757.48
2023-04-27T21:29:06.036Z,98755.42
2023-04-27T21:31:33.811Z,98749.62
2023-04-27T21:34:02.236Z,98748.44
2023-04-27T21:36:29.234Z,98749.45
2023-04-27T21:38:56.215Z,98746.42
2023-04-27T21:41:23.183Z,98749.49
2023-04-27T21:43:51.518Z,98751.14
2023-04-27T21:46:18.544Z,98757.26
2023-04-27T21:48:45.776Z,98758.50
2023-04-27T21:51:12.789Z,98752.92
2023-04-27T21:53:39.809Z,98757.48
2023-04-27T21:56:07.197Z,98753.84
2023-04-27T21:58:34.177Z,98753.77
2023-04-27T22:01:01.659Z,98756.96
2023-04-27T22:03:29.014Z,98753.52
2023-04-27T22:05:57.787Z,98749.77
2023-04-27T22:08:24.802Z,98748.68
2023-04-27T22:10:52.170Z,98742.27
2023-04-27T22:13:20.198Z,98744.08
2023-04-27T22:15:47.680Z,98747.57
2023-04-27T22:18:15.800Z,98743.11
2023-04-27T22:20:43.037Z,98742.71
2023-04-27T22:23:10.309Z,98736.74
2023-04-27T22:25:37.390Z,98740.25
2023-04-27T22:28:04.467Z,98737.86
2023-04-27T22:30:31.432Z,98737.14
2023-04-27T22:32:58.480Z,98745.60
2023-04-27T22:35:27.679Z,98744.88
2023-04-27T22:37:56.221Z,98742.45
2023-04-27T22:40:23.293Z,98738.02
2023-04-27T22:42:50.278Z,98742.05
2023-04-27T22:45:17.374Z,98743.94
2023-04-27T22:47:46.111Z,98742.39
2023-04-27T22:50:13.623Z,98739.70
2023-04-27T22:52:44.170Z,98741.08
2023-04-27T22:55:12.813Z,98745.45
2023-04-27T22:57:40.138Z,98749.45
2023-04-27T23:00:11.626Z,98758.05
2023-04-27T23:02:40.246Z,98755.34
2023-04-27T23:05:07.712Z,98754.05
2023-04-27T23:07:35.030Z,98752.64
2023-04-27T23:10:03.179Z,98746.57
2023-04-27T23:12:30.881Z,98743.91
2023-04-27T23:14:58.562Z,98739.92
2023-04-27T23:17:34.356Z,98737.16
2023-04-27T23:20:01.763Z,98733.52
2023-04-27T23:22:29.342Z,98736.13
2023-04-27T23:24:56.401Z,98738.67
2023-04-27T23:27:25.156Z,98732.63
2023-04-27T23:29:52.878Z,98736.90
2023-04-27T23:32:20.369Z,98733.34
2023-04-27T23:34:47.672Z,98737.73
2023-04-27T23:37:14.633Z,98733.64
2023-04-27T23:39:41.572Z,98734.52
2023-04-27T23:42:08.584Z,98731.38
2023-04-27T23:44:35.518Z,98735.65
2023-04-27T23:47:02.479Z,98735.76
2023-04-27T23:49:29.484Z,98738.19
2023-04-27T23:51:56.441Z,98736.23
2023-04-27T23:54:23.522Z,98739.98
2023-04-27T23:56:51.439Z,98743.38
2023-04-27T23:59:18.757Z,98748.55
